ADDS METAR Data INFO
IDs: Format: Raw Decoded Include TAF

Data at: 0807 UTC 23 Jul 2018

KLOU 230753Z AUTO 36007KT 10SM CLR 20/19 A2984 RMK AO2 SLP098 T02000189 $
KLOU 230653Z AUTO 32004KT 9SM CLR 21/20 A2981 RMK AO2 SLP089 T02060200 $
KLOU 230553Z AUTO 33004KT 10SM CLR 21/21 A2981 RMK AO2 SLP091 T02110206 10228 20211 58003 $
KLOU 230453Z AUTO 00000KT 10SM CLR 22/21 A2982 RMK AO2 SLP093 T02170211 403220211 $
KLOU 230353Z AUTO 00000KT 10SM CLR 22/21 A2982 RMK AO2 SLP094 T02170211 $
KLOU 230253Z AUTO 31003KT 10SM SCT036 SCT070 22/22 A2982 RMK AO2 SLP093 T02170217 53015 $
KLOU 230153Z 00000KT 10SM CLR 22/21 A2981 RMK AO2 SLP088 T02170211 $
KLOU 230053Z 33003KT 10SM FEW035 SCT065 23/22 A2979 RMK AO2 LTG DSNT W SLP081 T02280217 $
KLOU 230013Z 00000KT 10SM FEW031 SCT095 23/22 A2978 RMK AO2 LTG DSNT SE AND W T02280217 $
KLOU 222353Z 06003KT 10SM VCTS SCT031 BKN100 23/22 A2978 RMK AO2 LTG DSNT ALQDS RAB14E34 SLP078 P0001 60011 T02280217 10283 20228 51009 $
KLOU 222350Z 00000KT 10SM VCTS FEW029 SCT070 BKN100 23/22 A2978 RMK AO2 LTG DSNT ALQDS RAB14E34 P0001 $
KLOU 222253Z 31006KT 10SM FEW075 BKN110 23/22 A2975 RMK AO2 LTG DSNT ALQDS RAB00RAEMMB36E51 TSB2158E13 SLP069 P0004 T02330217 $
KLOU 222249Z 30006KT 10SM -RA FEW041 FEW085 BKN110 23/22 A2975 RMK AO2 LTG DSNT ALQDS RAB00RAEMMB36 TSB2158E13 P0004 $
KLOU 222234Z 30006KT 5SM VCTS BR SCT090 OVC110 23/22 A2974 RMK AO2 LTG DSNT NE AND S AND NW RAB00RAEMM TSB2158E13 P0004 T02330217 $
KLOU 222217Z 31005KT 9SM -RA FEW032 BKN075 OVC100 24/23 A2974 RMK AO2 LTG DSNT S RAB00 TSB2158E13 P0002 T02440228 $
KLOU 222204Z 36007KT 5SM +TSRA FEW030 SCT041 BKN055 26/22 A2974 RMK AO2 RAB00 TSB2158 P0001 T02560217 $
KLOU 222153Z 34004KT 10SM VCTS FEW030 FEW044 BKN070 27/21 A2973 RMK AO2 SLP062 T02720211 $
KLOU 222150Z 31004KT 10SM VCTS FEW030 FEW044 SCT070 27/21 A2973 RMK AO2 LTG DSNT N $
KLOU 222053Z 04007KT 10SM SCT060 28/21 A2972 RMK AO2 SLP059 60006 T02780211 58001 $
KLOU 221953Z 01007KT 10SM FEW032 SCT060 SCT085 26/22 A2973 RMK AO2 LTG DSNT SE RAE38 SLP060 P0006 T02610222 $
KLOU 221912Z 35006KT 8SM RA FEW022 BKN036 OVC080 24/22 A2973 RMK AO2 LTG DSNT SW P0003 T02390217 $
KLOU 221903Z 35007KT 5SM +RA BR BKN022 BKN035 OVC047 24/22 A2973 RMK AO2 P0002 T02440222 $
KLOU 221853Z 34006KT 10SM -RA SCT021 BKN030 OVC060 26/22 A2973 RMK AO2 RAB47 SLP060 P0000 T02610217 $
KLOU 221848Z 33007KT 10SM -RA BKN021 BKN030 OVC044 26/22 A2973 RMK AO2 RAB47 P0000 $
KLOU 221753Z 29008KT 10SM FEW014 SCT038 BKN050 25/22 A2974 RMK AO2 RAB01E38 SLP064 P0001 60001 T02500217 10322 20228 58001 $
KLOU 221729Z 30007KT 10SM -RA FEW008 BKN041 OVC060 23/22 A2975 RMK AO2 RAB01 P0001 T02280217
KLOU 221708Z 31004KT 10SM -RA SCT018 BKN023 OVC055 25/21 A2974 RMK AO2 RAB01 P0000 T02500211
KLOU 221653Z 31006KT 10SM FEW018 BKN036 OVC050 25/21 A2974 RMK AO2 SLP065 T02500211
KLOU 221628Z 30007KT 10SM FEW015 SCT024 OVC040 24/21 A2975 RMK AO2 T02440211 $
KLOU 221553Z 30007G14KT 10SM BKN018 OVC028 24/21 A2975 RMK AO2 RAB09E22 SLP068 P0000 T02390211 $
KLOU 221453Z 29007KT 10SM BKN017 BKN034 OVC042 30/21 A2974 RMK AO2 SLP065 60000 T03000206 50004
KLOU 221353Z 29007KT 10SM BKN017 BKN025 OVC034 30/21 A2975 RMK AO2 SLP065 T03000206 $
KLOU 221335Z 30008KT 10SM BKN015 OVC023 29/21 A2975 RMK AO2 T02940206 $
KLOU 221253Z 29010KT 10SM OVC014 29/21 A2974 RMK AO2 RAB08E39 SLP063 P0000 T02890206 $
KLOU 221153Z 28007KT 10SM OVC013 29/20 A2973 RMK AO2 SLPNO 70001 T02890200 10294 20267 53002 $
KLOU 221053Z 27005KT 10SM OVC014 28/20 A2972 RMK AO2 SLPNO T02830200 $
KLOU 221035Z AUTO 29006KT 10SM BKN014 BKN019 OVC042 29/19 A2972 RMK AO2 T02890194 $
KLOU 220953Z AUTO 28006KT 10SM BKN016 BKN036 27/19 A2972 RMK AO2 SLPNO T02720194 $
KLOU 220853Z AUTO 27006KT 10SM BKN014 OVC065 28/19 A2972 RMK AO2 SLPNO T02780194 56008 $
KLOU 220830Z AUTO 27007KT 10SM BKN014 29/20 A2972 RMK AO2 T02890200 $
KLOU 220808Z AUTO 28006KT 10SM SCT016 27/20 A2972 RMK AO2 T02720200 $
KLOU 220753Z AUTO 27006KT 10SM BKN016 29/20 A2973 RMK AO2 SLPNO T02890200 $
KLOU 220701Z AUTO 28006KT 10SM BKN020 28/20 A2973 RMK AO2 T02830200 $
KLOU 220653Z AUTO 28006KT 10SM SCT020 28/20 A2974 RMK AO2 SLPNO T02830200 $
KLOU 220553Z AUTO 28008KT 10SM CLR 29/21 A2975 RMK AO2 SLPNO 60001 T02890206 56008 $
KLOU 220512Z AUTO 28007KT 10SM SCT017 28/21 A2975 RMK AO2 T02780206 $
KLOU 220453Z AUTO 27007KT 10SM BKN017 BKN110 31/21 A2975 RMK AO2 SLPNO T03110211 $
KLOU 220353Z AUTO 25006KT 10SM FEW016 BKN090 32/21 A2976 RMK AO2 SLPNO T03170211 $
KLOU 220253Z AUTO 26006KT 10SM BKN065 29/22 A2977 RMK AO2 LTG DSNT S SLPNO 60001 T02890217 56002 $
KLOU 220221Z AUTO 25006KT 10SM FEW014 SCT019 30/22 A2977 RMK AO2 LTG DSNT SW T03000217 $
KLOU 220204Z AUTO 27003KT 10SM SCT014 BKN022 BKN037 29/22 A2977 RMK AO2 LTG DSNT W T02940217 $
KLOU 220153Z AUTO 24006KT 10SM SCT021 BKN037 OVC047 32/22 A2977 RMK AO2 SLPNO T03170217 $
KLOU 220053Z 26007KT 10SM FEW012 BKN043 OVC085 30/22 A2976 RMK AO2 RAB29E45 SLPNO P0001 T03000217 $
KLOU 220036Z 26007KT 3SM -RA SCT021 BKN026 BKN038 27/22 A2977 RMK AO2 RAB29 P0001 T02670217 $
KLOU 212353Z COR 27015KT 10SM -RA SCT021 BKN026 BKN038 23/20 A2977 RMK AO2 SLPNO 53003
KLOU 212253Z COR 27012KT 10SM -RA FEW032 BKN055 BKN070 23/22 A2976 RMK AO2 SLPNO
KLOU 212153Z COR 28011G19KT 10SM FEW035 BKN080 BKN090 26/29 A2976 RMK AO2 SLPNO
KLOU 212053Z A2976 RMK AO2 SLPNO 55007